Time;durP1;ratioP1;P1;durP2;ratioP2;P2;SDS_P1;SDS_P2;PMS_P1;PMS_P2;Temp;Humidity;BMP_temperature;BMP_pressure;BME280_temperature;BME280_humidity;BME280_pressure;Samples;Min_cycle;Max_cycle;Signal;HPM_P1;HPM_P2
2020/12/19 00:00:11;;;;;;;20.17;9.77;;;6.10;1.00;;;;;;5077331;28;20532;-75
2020/12/19 00:02:40;;;;;;;13.67;7.93;;;6.00;1.00;;;;;;5092025;28;20440;-75
2020/12/19 00:05:07;;;;;;;17.30;8.45;;;6.00;1.00;;;;;;5078657;28;20198;-75
2020/12/19 00:07:45;;;;;;;18.55;7.78;;;5.90;1.00;;;;;;5073328;28;20155;-76
2020/12/19 00:10:15;;;;;;;20.80;8.40;;;5.80;1.00;;;;;;5079078;28;20175;-75
2020/12/19 00:12:51;;;;;;;16.77;8.20;;;5.80;1.00;;;;;;5092468;28;20660;-75
2020/12/19 00:15:50;;;;;;;18.73;8.35;;;5.80;1.00;;;;;;5078613;28;20170;-76
2020/12/19 00:21:57;;;;;;;18.02;7.63;;;5.70;1.00;;;;;;5073449;28;20594;-77
2020/12/19 00:24:22;;;;;;;16.35;7.40;;;5.70;1.00;;;;;;5073418;28;20304;-76
2020/12/19 00:27:08;;;;;;;16.53;8.53;;;5.60;1.00;;;;;;5073140;28;20221;-78
2020/12/19 00:30:14;;;;;;;14.05;7.63;;;5.70;1.00;;;;;;5078269;28;20183;-77
2020/12/19 00:33:32;;;;;;;15.52;7.63;;;5.70;1.00;;;;;;5073653;28;20183;-77
2020/12/19 00:36:21;;;;;;;18.08;6.80;;;5.60;1.00;;;;;;5073639;28;20183;-77
2020/12/19 00:39:32;;;;;;;13.18;6.93;;;5.50;1.00;;;;;;5091538;28;20652;-76
2020/12/19 00:45:20;;;;;;;17.40;7.05;;;5.40;1.00;;;;;;5090484;28;20535;-77
2020/12/19 00:47:46;;;;;;;12.37;6.27;;;5.30;1.00;;;;;;5094106;28;20163;-76
2020/12/19 00:50:21;;;;;;;20.63;8.87;;;5.20;1.00;;;;;;5079292;28;20167;-77
2020/12/19 00:53:09;;;;;;;13.90;7.07;;;5.20;1.00;;;;;;5076944;28;20159;-76
2020/12/19 00:55:45;;;;;;;13.85;7.60;;;5.20;1.00;;;;;;5093020;28;20175;-77
2020/12/19 01:05:05;;;;;;;14.27;7.00;;;4.90;1.00;;;;;;5090761;28;20220;-77
2020/12/19 01:07:36;;;;;;;16.75;7.43;;;4.80;1.00;;;;;;5096499;28;20170;-75
2020/12/19 01:10:12;;;;;;;13.93;6.82;;;4.70;1.00;;;;;;5096939;28;20159;-75
2020/12/19 01:12:38;;;;;;;17.60;6.55;;;6.10;1.00;;;;;;5096397;28;20154;-75
2020/12/19 01:15:06;;;;;;;17.95;7.63;;;4.60;1.00;;;;;;5096342;28;20170;-75
2020/12/19 01:17:32;;;;;;;18.48;6.90;;;4.60;1.00;;;;;;5079227;28;20163;-75
2020/12/19 01:20:03;;;;;;;41.23;6.70;;;4.50;1.00;;;;;;5076250;28;20208;-75
2020/12/19 01:22:39;;;;;;;13.15;6.20;;;4.40;1.00;;;;;;5076260;28;20155;-75
2020/12/19 01:25:05;;;;;;;12.73;7.00;;;4.30;1.00;;;;;;5077070;28;20163;-75
2020/12/19 01:27:30;;;;;;;17.17;6.87;;;4.20;1.00;;;;;;5076353;28;20181;-75
2020/12/19 01:30:26;;;;;;;14.73;6.90;;;4.10;1.00;;;;;;5086804;28;20656;-75
2020/12/19 01:32:52;;;;;;;15.55;6.20;;;4.10;1.00;;;;;;5083969;28;20168;-75
2020/12/19 01:35:21;;;;;;;20.33;7.17;;;4.10;1.00;;;;;;5090984;28;20173;-75
2020/12/19 01:37:57;;;;;;;12.10;6.72;;;3.90;1.00;;;;;;5103349;28;20210;-75
2020/12/19 01:40:27;;;;;;;10.05;4.90;;;3.90;1.00;;;;;;5098760;28;20166;-75
2020/12/19 01:43:04;;;;;;;13.23;6.47;;;3.80;1.00;;;;;;5094619;28;20492;-75
2020/12/19 01:45:33;;;;;;;17.30;5.75;;;3.80;1.00;;;;;;5077186;28;20202;-75
2020/12/19 01:48:23;;;;;;;10.90;5.35;;;3.80;1.00;;;;;;5096816;28;20159;-76
2020/12/19 01:50:49;;;;;;;10.75;5.32;;;3.70;1.00;;;;;;5091744;28;20178;-77
2020/12/19 01:53:33;;;;;;;15.35;6.72;;;3.70;1.00;;;;;;5095886;28;20287;-76
2020/12/19 01:56:03;;;;;;;15.95;5.90;;;3.60;1.00;;;;;;5094728;28;20195;-77
2020/12/19 01:59:14;;;;;;;9.88;4.90;;;3.60;1.00;;;;;;5093753;28;20171;-77
2020/12/19 02:01:43;;;;;;;8.77;5.20;;;3.60;1.00;;;;;;5082116;28;20166;-77
2020/12/19 02:04:16;;;;;;;15.20;5.63;;;3.60;1.00;;;;;;5082685;28;20218;-77
2020/12/19 02:07:04;;;;;;;13.18;5.68;;;3.50;1.00;;;;;;5093800;28;20618;-77
2020/12/19 02:12:51;;;;;;;11.60;5.40;;;3.50;1.00;;;;;;5095219;28;20184;-77
2020/12/19 02:15:53;;;;;;;13.93;6.00;;;3.40;1.00;;;;;;5090369;28;20166;-77
2020/12/19 02:21:51;;;;;;;6.43;4.22;;;3.30;1.00;;;;;;5033636;28;20564;-77
2020/12/19 02:25:08;;;;;;;9.07;4.85;;;3.30;1.00;;;;;;5032799;28;20165;-77
2020/12/19 02:28:04;;;;;;;10.85;5.47;;;3.30;1.00;;;;;;5032283;28;20188;-76
2020/12/19 02:30:45;;;;;;;9.85;5.13;;;3.30;1.00;;;;;;5032375;28;20180;-77
2020/12/19 02:33:39;;;;;;;9.18;5.18;;;3.20;1.00;;;;;;5013591;28;20586;-76
2020/12/19 02:36:56;;;;;;;8.48;4.18;;;3.20;1.00;;;;;;5027499;28;20238;-76
2020/12/19 02:46:39;;;;;;;6.75;3.90;;;3.30;1.00;;;;;;5029508;28;20604;-77
2020/12/19 02:49:09;;;;;;;8.73;4.50;;;3.30;1.00;;;;;;5020596;28;20223;-75
2020/12/19 02:51:35;;;;;;;11.52;5.05;;;3.30;1.00;;;;;;5040725;28;20175;-75
2020/12/19 02:54:02;;;;;;;10.63;4.97;;;3.30;1.00;;;;;;5081769;28;20220;-75
2020/12/19 02:56:27;;;;;;;9.15;5.20;;;3.30;1.00;;;;;;5081659;28;20474;-75
2020/12/19 02:59:03;;;;;;;13.83;4.87;;;3.30;1.00;;;;;;5090362;28;20172;-75
2020/12/19 03:01:30;;;;;;;7.28;4.72;;;3.30;1.00;;;;;;5083280;28;20189;-75
2020/12/19 03:04:03;;;;;;;9.45;5.13;;;3.30;1.00;;;;;;5095005;28;20208;-77
2020/12/19 03:06:29;;;;;;;11.05;5.85;;;3.30;1.00;;;;;;5094257;28;20154;-78
2020/12/19 03:08:57;;;;;;;8.05;5.35;;;3.30;1.00;;;;;;5088985;28;20194;-77
2020/12/19 03:18:06;;;;;;;7.68;4.25;;;3.40;1.00;;;;;;5074456;28;20331;-77
2020/12/19 03:20:32;;;;;;;9.13;4.30;;;3.40;1.00;;;;;;5074813;28;20200;-77
2020/12/19 03:23:09;;;;;;;10.80;5.67;;;3.30;1.00;;;;;;5073898;28;20159;-78
2020/12/19 03:25:57;;;;;;;10.73;5.15;;;3.30;1.00;;;;;;5088990;28;20170;-77
2020/12/19 03:28:22;;;;;;;9.90;4.32;;;3.40;1.00;;;;;;5094137;28;20531;-77
2020/12/19 03:34:59;;;;;;;8.95;4.80;;;3.50;1.00;;;;;;5081341;28;20351;-77
2020/12/19 03:37:25;;;;;;;5.75;4.50;;;3.50;1.00;;;;;;5095381;28;20190;-77
2020/12/19 03:39:57;;;;;;;9.97;5.30;;;3.60;1.00;;;;;;5082650;28;20229;-77
2020/12/19 03:42:45;;;;;;;11.75;6.25;;;3.60;1.00;;;;;;5093888;28;20578;-77
2020/12/19 03:45:11;;;;;;;9.30;5.30;;;3.80;1.00;;;;;;5078565;28;20669;-77
2020/12/19 03:47:39;;;;;;;12.70;6.03;;;3.80;1.00;;;;;;5092396;28;20632;-75
2020/12/19 03:50:05;;;;;;;11.25;5.50;;;3.80;1.00;;;;;;5092694;28;20685;-75
2020/12/19 03:52:51;;;;;;;10.45;5.68;;;4.10;1.00;;;;;;5073888;28;20163;-75
2020/12/19 03:55:27;;;;;;;10.80;5.30;;;3.90;1.00;;;;;;5073605;28;20175;-75
2020/12/19 03:58:32;;;;;;;9.07;5.53;;;4.10;1.00;;;;;;5073801;28;20159;-75
2020/12/19 04:01:15;;;;;;;11.75;6.30;;;4.20;1.00;;;;;;5078160;28;20174;-76
2020/12/19 04:03:41;;;;;;;16.55;5.75;;;4.20;1.00;;;;;;5094240;28;20158;-75
2020/12/19 04:06:27;;;;;;;16.90;5.97;;;4.20;1.00;;;;;;5093756;28;20166;-75
2020/12/19 04:08:52;;;;;;;11.95;5.97;;;4.30;1.00;;;;;;5088772;28;20167;-75
2020/12/19 04:11:18;;;;;;;13.03;6.23;;;4.40;1.00;;;;;;5081117;28;20174;-75
2020/12/19 04:13:51;;;;;;;9.77;4.87;;;4.30;1.00;;;;;;5073537;28;20289;-75
2020/12/19 04:16:21;;;;;;;9.45;4.70;;;4.40;1.00;;;;;;5093608;28;20640;-75
2020/12/19 04:18:51;;;;;;;16.45;6.93;;;4.50;1.00;;;;;;5088264;28;20790;-75
2020/12/19 04:21:17;;;;;;;12.27;5.15;;;4.50;1.00;;;;;;5073537;28;20202;-75
2020/12/19 04:23:42;;;;;;;10.63;5.80;;;4.60;1.00;;;;;;5076867;28;20173;-76
2020/12/19 04:26:21;;;;;;;9.80;5.93;;;4.60;1.00;;;;;;5097406;28;20186;-75
2020/12/19 04:28:47;;;;;;;10.82;6.00;;;4.70;1.00;;;;;;5077645;28;20266;-76
2020/12/19 04:31:21;;;;;;;16.93;7.07;;;4.70;1.00;;;;;;5093087;28;20270;-75
2020/12/19 04:33:51;;;;;;;14.55;5.80;;;4.70;1.00;;;;;;5104662;28;20657;-77
2020/12/19 04:37:03;;;;;;;12.02;5.60;;;4.80;1.00;;;;;;5077182;28;20565;-77
2020/12/19 04:39:45;;;;;;;11.50;5.97;;;4.80;1.00;;;;;;5085657;28;20181;-77
2020/12/19 04:46:03;;;;;;;8.77;5.18;;;4.90;1.00;;;;;;5076711;28;20185;-77
2020/12/19 04:48:30;;;;;;;13.57;6.30;;;5.00;1.00;;;;;;5078449;28;20622;-75
2020/12/19 04:51:21;;;;;;;17.80;6.43;;;4.90;1.00;;;;;;5097485;28;20289;-75
2020/12/19 04:53:47;;;;;;;11.35;5.88;;;5.00;1.00;;;;;;5090580;28;20198;-75
2020/12/19 04:56:15;;;;;;;13.50;7.27;;;5.00;1.00;;;;;;5077068;28;20249;-75
2020/12/19 04:58:41;;;;;;;11.95;6.15;;;5.00;1.00;;;;;;5080430;28;20161;-75
2020/12/19 05:01:21;;;;;;;15.90;7.50;;;5.10;1.00;;;;;;5083584;28;20180;-75
2020/12/19 05:03:52;;;;;;;12.63;6.32;;;5.10;1.00;;;;;;5096612;28;20209;-75
2020/12/19 05:06:23;;;;;;;20.77;8.00;;;5.10;1.00;;;;;;5081332;28;20174;-75
2020/12/19 05:08:58;;;;;;;13.50;7.10;;;5.10;1.00;;;;;;5096894;28;20173;-75
2020/12/19 05:11:26;;;;;;;17.42;6.93;;;5.10;1.00;;;;;;5096797;28;20548;-75
2020/12/19 05:17:15;;;;;;;8.77;5.43;;;5.20;1.00;;;;;;5077758;28;20194;-75
2020/12/19 05:20:21;;;;;;;19.27;6.95;;;5.10;1.00;;;;;;5096774;28;20245;-75
2020/12/19 05:22:52;;;;;;;9.07;5.77;;;5.20;1.00;;;;;;5095404;28;20523;-75
2020/12/19 05:25:20;;;;;;;15.23;6.65;;;5.10;1.00;;;;;;5096433;28;20894;-75
2020/12/19 05:28:03;;;;;;;14.57;6.60;;;5.10;1.00;;;;;;5093624;28;20163;-75
2020/12/19 05:30:40;;;;;;;12.05;6.00;;;5.00;1.00;;;;;;5095866;28;20182;-75
2020/12/19 05:33:10;;;;;;;11.93;5.93;;;5.00;1.00;;;;;;5088237;28;20178;-75
2020/12/19 05:35:51;;;;;;;15.52;7.05;;;5.00;1.00;;;;;;5076533;28;20422;-77
2020/12/19 05:39:04;;;;;;;13.80;5.78;;;4.90;1.00;;;;;;5085393;28;20715;-77
2020/12/19 05:48:12;;;;;;;11.68;5.20;;;4.60;1.00;;;;;;5033908;28;20218;-76
2020/12/19 05:50:38;;;;;;;12.00;5.90;;;4.50;1.00;;;;;;5034009;28;20647;-77
2020/12/19 05:53:22;;;;;;;14.53;6.13;;;4.50;1.00;;;;;;5027707;28;20184;-75
2020/12/19 05:55:52;;;;;;;11.45;6.28;;;4.50;1.00;;;;;;5033744;28;20270;-75
2020/12/19 05:58:27;;;;;;;11.23;5.85;;;4.50;1.00;;;;;;5034956;28;20175;-75
2020/12/19 06:01:09;;;;;;;13.02;6.68;;;4.40;1.00;;;;;;5034187;28;20164;-75
2020/12/19 06:03:39;;;;;;;12.80;5.93;;;4.30;1.00;;;;;;5036883;28;20194;-75
2020/12/19 06:06:27;;;;;;;15.02;5.68;;;4.30;1.00;;;;;;5032513;28;20230;-76
2020/12/19 06:09:04;;;;;;;7.90;4.97;;;4.30;1.00;;;;;;5032475;28;20184;-76
2020/12/19 06:14:55;;;;;;;13.52;5.65;;;4.30;1.00;;;;;;5068724;28;20209;-77
2020/12/19 06:17:47;;;;;;;10.98;5.50;;;4.30;1.00;;;;;;5093520;28;20195;-76
2020/12/19 06:23:35;;;;;;;12.95;6.15;;;4.30;1.00;;;;;;5083228;28;20197;-76
2020/12/19 06:26:02;;;;;;;12.88;5.78;;;4.30;1.00;;;;;;5075564;28;20253;-76
2020/12/19 06:28:40;;;;;;;13.73;6.05;;;4.40;1.00;;;;;;5074650;28;20163;-76
2020/12/19 06:31:27;;;;;;;10.35;5.10;;;4.40;1.00;;;;;;5075389;28;20647;-76
2020/12/19 06:34:02;;;;;;;17.67;6.50;;;4.50;1.00;;;;;;5090180;28;20190;-75
2020/12/19 06:36:47;;;;;;;18.30;7.40;;;4.50;1.00;;;;;;5075082;28;20166;-76
2020/12/19 06:39:51;;;;;;;9.20;4.85;;;4.50;1.00;;;;;;5084237;28;20179;-76
2020/12/19 06:45:38;;;;;;;10.35;5.28;;;4.40;1.00;;;;;;5115430;28;20207;-77
2020/12/19 06:48:34;;;;;;;13.53;5.37;;;4.30;1.00;;;;;;5090119;27;20175;-78
2020/12/19 06:51:04;;;;;;;7.30;4.85;;;4.30;1.00;;;;;;5093135;28;20162;-77
2020/12/19 06:53:54;;;;;;;12.27;5.60;;;4.30;1.00;;;;;;5086868;28;20704;-76
2020/12/19 06:56:43;;;;;;;9.65;4.75;;;4.20;1.00;;;;;;5081845;28;20260;-77
2020/12/19 07:09:35;;;;;;;17.48;4.93;;;4.00;1.00;;;;;;5074387;28;20548;-78
2020/12/19 07:12:51;;;;;;;16.10;5.97;;;3.80;1.00;;;;;;5074755;28;20226;-78
2020/12/19 07:18:39;;;;;;;6.00;4.20;;;3.70;1.00;;;;;;5074180;28;20151;-78
2020/12/19 07:21:10;;;;;;;11.65;5.03;;;3.60;1.00;;;;;;5075328;28;20167;-79
2020/12/19 07:23:51;;;;;;;14.00;5.30;;;3.60;1.00;;;;;;5082354;28;20181;-77
2020/12/19 07:26:21;;;;;;;11.65;5.50;;;3.50;1.00;;;;;;5073797;28;20190;-77
2020/12/19 07:29:21;;;;;;;12.93;5.68;;;3.50;1.00;;;;;;5081022;28;20182;-76
2020/12/19 07:31:53;;;;;;;11.68;5.80;;;3.40;1.00;;;;;;5092332;28;20187;-76
2020/12/19 07:34:59;;;;;;;31.10;5.47;;;3.30;1.00;;;;;;5074149;28;20521;-76
2020/12/19 07:37:26;;;;;;;7.68;4.18;;;3.30;1.00;;;;;;5083836;28;20200;-76
2020/12/19 07:40:07;;;;;;;12.23;5.00;;;3.30;1.00;;;;;;5094284;28;20249;-75
2020/12/19 07:42:33;;;;;;;11.48;5.88;;;3.20;1.00;;;;;;5113300;28;20490;-75
2020/12/19 07:45:03;;;;;;;16.00;4.80;;;3.20;1.00;;;;;;5114575;28;20186;-75
2020/12/19 07:47:29;;;;;;;11.27;5.20;;;3.20;1.00;;;;;;5107811;28;20170;-75
2020/12/19 07:49:55;;;;;;;10.37;5.47;;;3.20;1.00;;;;;;5093876;28;20687;-75
2020/12/19 07:52:33;;;;;;;9.27;5.60;;;3.20;1.00;;;;;;5094474;28;20492;-75
2020/12/19 07:55:03;;;;;;;13.93;5.95;;;3.30;1.00;;;;;;5073588;28;20213;-75
2020/12/19 07:57:31;;;;;;;11.68;6.00;;;3.30;1.00;;;;;;5081688;28;20167;-75
2020/12/19 07:59:59;;;;;;;10.15;5.25;;;3.30;1.00;;;;;;5077625;28;20217;-75
2020/12/19 08:02:27;;;;;;;13.38;5.18;;;3.40;1.00;;;;;;5080389;28;20155;-75
2020/12/19 08:04:57;;;;;;;12.23;5.15;;;3.40;1.00;;;;;;5082217;28;20170;-75
2020/12/19 08:07:27;;;;;;;7.25;4.63;;;3.40;1.00;;;;;;5100592;28;20173;-75
2020/12/19 08:10:04;;;;;;;12.30;6.70;;;3.40;1.00;;;;;;5100595;28;20165;-75
2020/12/19 08:12:40;;;;;;;8.68;4.63;;;3.40;1.00;;;;;;5119348;28;20624;-75
2020/12/19 08:15:12;;;;;;;8.27;3.97;;;3.40;1.00;;;;;;5098789;27;20693;-75
2020/12/19 08:17:50;;;;;;;10.35;4.20;;;3.40;1.00;;;;;;5084206;28;20252;-75
2020/12/19 08:20:26;;;;;;;12.13;5.75;;;3.40;1.00;;;;;;5087658;28;20189;-75
2020/12/19 08:22:54;;;;;;;10.23;4.65;;;3.40;1.00;;;;;;5080481;28;20257;-75
2020/12/19 08:25:21;;;;;;;12.13;6.30;;;3.50;1.00;;;;;;5080218;28;20159;-75
2020/12/19 08:27:47;;;;;;;12.43;5.15;;;3.60;1.00;;;;;;5080264;28;20167;-75
2020/12/19 08:30:13;;;;;;;9.57;4.77;;;;;;;;;;5080158;28;20529;-75
2020/12/19 08:32:50;;;;;;;12.00;5.57;;;3.70;1.00;;;;;;5080068;28;20393;-75
2020/12/19 08:35:48;;;;;;;11.25;5.55;;;3.80;1.00;;;;;;5079049;28;20440;-75
2020/12/19 08:38:24;;;;;;;8.52;4.57;;;3.90;1.00;;;;;;5083402;28;20205;-77
2020/12/19 08:41:27;;;;;;;13.02;6.18;;;4.00;1.00;;;;;;5058263;28;20158;-77
2020/12/19 08:43:57;;;;;;;17.15;5.53;;;4.30;1.00;;;;;;5066553;28;20173;-76
2020/12/19 08:49:52;;;;;;;14.05;6.45;;;4.40;1.00;;;;;;5063157;28;20555;-77
2020/12/19 08:52:39;;;;;;;11.90;5.43;;;4.70;1.00;;;;;;5058061;28;20175;-77
2020/12/19 08:58:31;;;;;;;14.35;6.30;;;4.90;1.00;;;;;;5077748;28;20249;-77
2020/12/19 09:01:23;;;;;;;17.00;8.43;;;5.00;1.00;;;;;;5086443;28;20257;-77
2020/12/19 09:03:53;;;;;;;11.35;6.13;;;5.10;1.00;;;;;;5091943;28;20194;-77
2020/12/19 09:06:27;;;;;;;17.40;7.70;;;5.10;1.00;;;;;;5098038;28;20162;-79
2020/12/19 09:08:53;;;;;;;15.43;6.80;;;5.20;1.00;;;;;;5089298;28;20558;-76
2020/12/19 09:11:33;;;;;;;17.70;6.60;;;5.20;1.00;;;;;;5084746;28;20173;-75
2020/12/19 09:14:26;;;;;;;19.98;7.40;;;5.30;1.00;;;;;;5085238;28;20215;-75
2020/12/19 09:16:57;;;;;;;16.50;8.50;;;5.30;1.00;;;;;;5092582;28;20174;-76
2020/12/19 09:19:23;;;;;;;35.38;7.50;;;5.40;1.00;;;;;;5096486;28;20204;-75
2020/12/19 09:22:09;;;;;;;15.80;6.50;;;5.40;1.00;;;;;;5083999;28;20179;-76
2020/12/19 09:24:35;;;;;;;17.52;8.00;;;5.50;1.00;;;;;;5086549;28;20174;-75
2020/12/19 09:27:15;;;;;;;17.95;7.55;;;5.40;1.00;;;;;;5096408;28;20170;-75
2020/12/19 09:29:41;;;;;;;15.65;7.47;;;5.40;1.00;;;;;;5096344;28;20201;-75
2020/12/19 09:32:45;;;;;;;11.67;6.20;;;5.40;1.00;;;;;;5084581;28;20171;-75
2020/12/19 09:35:33;;;;;;;12.18;6.68;;;5.30;1.00;;;;;;5075823;28;20190;-75
2020/12/19 09:38:21;;;;;;;18.10;7.93;;;5.30;1.00;;;;;;5098966;28;20178;-76
2020/12/19 09:40:57;;;;;;;15.68;6.68;;;5.30;1.00;;;;;;5106621;28;20166;-81
2020/12/19 09:43:27;;;;;;;17.48;6.68;;;5.30;1.00;;;;;;5111429;28;20671;-77
2020/12/19 09:45:57;;;;;;;12.55;6.97;;;5.30;1.00;;;;;;5085945;28;20190;-76
2020/12/19 09:48:45;;;;;;;14.35;7.55;;;5.30;1.00;;;;;;5075526;28;20679;-77
2020/12/19 09:51:51;;;;;;;11.70;6.47;;;5.40;1.00;;;;;;5080922;28;20171;-78
2020/12/19 09:54:39;;;;;;;10.23;6.30;;;5.40;1.00;;;;;;5075877;28;20187;-75
2020/12/19 09:57:05;;;;;;;15.65;6.93;;;5.40;1.00;;;;;;5075725;28;20170;-75
2020/12/19 09:59:31;;;;;;;24.03;8.60;;;5.60;1.00;;;;;;5083862;28;20171;-75
2020/12/19 10:01:57;;;;;;;13.32;7.65;;;5.70;1.00;;;;;;5090464;28;20158;-75
2020/12/19 10:04:23;;;;;;;16.50;7.73;;;5.80;1.00;;;;;;5095576;28;20227;-75
2020/12/19 10:06:57;;;;;;;16.63;7.30;;;5.90;1.00;;;;;;5095532;28;20401;-75
2020/12/19 10:09:27;;;;;;;17.60;8.38;;;6.00;1.00;;;;;;5094782;28;20166;-77
2020/12/19 10:11:57;;;;;;;13.40;7.82;;;6.10;1.00;;;;;;5109149;28;20176;-78
2020/12/19 10:14:23;;;;;;;19.07;7.90;;;6.30;1.00;;;;;;5115979;28;20186;-76
2020/12/19 10:16:49;;;;;;;16.77;7.93;;;8.80;1.00;;;;;;5115404;28;20798;-77
2020/12/19 10:19:21;;;;;;;15.00;8.20;;;6.70;1.00;;;;;;5115809;28;20561;-77
2020/12/19 10:21:51;;;;;;;21.00;7.40;;;6.80;1.00;;;;;;5074968;28;20539;-77
2020/12/19 10:24:21;;;;;;;19.40;8.17;;;7.00;1.00;;;;;;5075262;28;20397;-77
2020/12/19 10:27:39;;;;;;;14.93;7.73;;;7.30;1.00;;;;;;5086490;28;20419;-76
2020/12/19 10:30:04;;;;;;;15.93;8.90;;;7.50;1.00;;;;;;5095008;28;20509;-76
2020/12/19 10:32:33;;;;;;;13.83;7.50;;;7.80;1.00;;;;;;5082511;28;20436;-76
2020/12/19 10:35:03;;;;;;;12.30;6.73;;;8.00;1.00;;;;;;5095006;28;20221;-76
2020/12/19 10:37:34;;;;;;;12.93;7.30;;;8.10;1.00;;;;;;5101759;28;20464;-76
2020/12/19 10:40:15;;;;;;;10.63;6.57;;;8.30;1.00;;;;;;5113124;28;20475;-75
2020/12/19 10:42:45;;;;;;;8.90;5.60;;;8.40;1.00;;;;;;5115306;28;20403;-75
2020/12/19 10:45:15;;;;;;;12.43;5.97;;;8.40;1.00;;;;;;5097796;28;20405;-75
2020/12/19 10:47:45;;;;;;;9.30;5.70;;;8.40;1.00;;;;;;5094941;28;20776;-75
2020/12/19 10:50:18;;;;;;;10.53;5.90;;;8.50;1.00;;;;;;5094618;28;20396;-74
2020/12/19 10:52:45;;;;;;;9.10;6.23;;;8.50;1.00;;;;;;5094796;28;20780;-75
2020/12/19 10:55:10;;;;;;;9.07;5.80;;;8.60;1.00;;;;;;5077127;28;20449;-77
2020/12/19 11:01:10;;;;;;;7.30;5.40;;;8.70;1.00;;;;;;5101498;28;20804;-78
2020/12/19 11:04:03;;;;;;;12.60;7.10;;;8.70;1.00;;;;;;5115001;28;20395;-77
2020/12/19 11:06:39;;;;;;;9.03;5.37;;;8.70;1.00;;;;;;5114593;28;20395;-78
2020/12/19 11:09:21;;;;;;;11.20;6.23;;;8.70;1.00;;;;;;5115019;28;20478;-75
2020/12/19 11:11:54;;;;;;;8.10;5.30;;;8.60;1.00;;;;;;5102124;28;20764;-76
2020/12/19 11:14:29;;;;;;;9.43;5.43;;;8.60;1.00;;;;;;5094419;28;20451;-76
2020/12/19 11:16:57;;;;;;;9.00;5.80;;;8.80;1.00;;;;;;5114595;28;20395;-75
2020/12/19 11:19:23;;;;;;;9.47;5.57;;;8.60;1.00;;;;;;5114610;28;20388;-75
2020/12/19 11:21:51;;;;;;;9.10;5.43;;;8.70;1.00;;;;;;5102533;28;20409;-74
2020/12/19 11:24:22;;;;;;;6.03;4.43;;;8.60;1.00;;;;;;5094709;28;20175;-75
2020/12/19 11:26:48;;;;;;;38.60;19.20;;;8.50;1.00;;;;;;5094756;28;20389;-76
2020/12/19 11:29:21;;;;;;;18.10;9.10;;;8.70;1.00;;;;;;5114757;28;20399;-75
2020/12/19 11:31:51;;;;;;;31.93;15.93;;;8.70;1.00;;;;;;5114542;28;20709;-75
2020/12/19 11:34:27;;;;;;;48.77;21.53;;;8.70;1.00;;;;;;5113451;28;20440;-75
2020/12/19 11:36:53;;;;;;;37.13;16.03;;;8.90;1.00;;;;;;5113048;28;20813;-75
2020/12/19 11:39:19;;;;;;;21.33;10.80;;;10.00;1.00;;;;;;5094357;28;20426;-75
2020/12/19 11:41:45;;;;;;;9.53;5.40;;;9.00;1.00;;;;;;5106370;28;20580;-75
2020/12/19 11:44:21;;;;;;;22.13;11.50;;;8.90;1.00;;;;;;5114235;28;20158;-75
2020/12/19 11:46:51;;;;;;;28.47;11.77;;;9.10;1.00;;;;;;5114424;28;20935;-75
2020/12/19 11:49:21;;;;;;;19.60;8.93;;;9.10;1.00;;;;;;5108177;28;20546;-77
2020/12/19 11:51:51;;;;;;;14.40;6.77;;;9.10;1.00;;;;;;5093952;28;20894;-75
2020/12/19 11:55:09;;;;;;;173.07;69.17;;;9.10;1.00;;;;;;5094031;28;20441;-81
2020/12/19 11:57:51;;;;;;;41.50;18.47;;;9.00;1.00;;;;;;5073615;28;20403;-75
2020/12/19 12:00:45;;;;;;;8.03;4.93;;;9.00;1.00;;;;;;5087988;28;20775;-76
2020/12/19 12:03:33;;;;;;;8.47;4.97;;;8.90;1.00;;;;;;5093991;28;20388;-75
2020/12/19 12:06:15;;;;;;;5.27;4.33;;;8.80;1.00;;;;;;5093949;28;20395;-76
2020/12/19 12:08:51;;;;;;;12.27;5.40;;;8.80;1.00;;;;;;5077688;28;20806;-75
2020/12/19 12:11:24;;;;;;;10.00;5.30;;;8.80;1.00;;;;;;5081719;28;20893;-74
2020/12/19 12:13:50;;;;;;;28.27;13.30;;;8.80;1.00;;;;;;5091945;28;20451;-74
2020/12/19 12:16:15;;;;;;;47.40;21.00;;;8.90;1.00;;;;;;5082888;28;20771;-75
2020/12/19 12:18:45;;;;;;;13.80;7.20;;;9.10;1.00;;;;;;5073401;28;20163;-74
2020/12/19 12:21:15;;;;;;;11.87;6.30;;;9.10;1.00;;;;;;5073302;28;20163;-74
2020/12/19 12:23:46;;;;;;;111.97;38.37;;;9.10;1.00;;;;;;5105721;28;20438;-74
2020/12/19 12:26:24;;;;;;;49.13;18.93;;;9.30;1.00;;;;;;5114173;28;20448;-75
2020/12/19 12:29:05;;;;;;;12.03;6.67;;;9.30;1.00;;;;;;5094454;28;20439;-76
2020/12/19 12:31:35;;;;;;;8.40;4.70;;;9.30;1.00;;;;;;5086728;28;20444;-76
2020/12/19 12:34:03;;;;;;;10.60;4.93;;;9.30;1.00;;;;;;5083051;28;20445;-78
2020/12/19 12:36:51;;;;;;;8.67;5.70;;;9.30;1.00;;;;;;5087289;28;20425;-76
2020/12/19 12:40:03;;;;;;;8.97;5.30;;;9.30;1.00;;;;;;5112803;28;20420;-76
2020/12/19 12:42:39;;;;;;;9.37;6.30;;;9.30;1.00;;;;;;5101558;28;20424;-76
2020/12/19 12:45:09;;;;;;;6.50;4.87;;;9.30;1.00;;;;;;5093551;28;20406;-76
2020/12/19 12:48:03;;;;;;;10.70;6.27;;;9.30;1.00;;;;;;5081764;28;20753;-76
2020/12/19 12:50:29;;;;;;;270.80;87.87;;;9.40;1.00;;;;;;5085076;28;20416;-76
2020/12/19 12:53:46;;;;;;;68.17;25.53;;;9.60;1.00;;;;;;5084419;28;20420;-77
2020/12/19 12:56:13;;;;;;;20.00;9.70;;;9.70;1.00;;;;;;5079302;28;20915;-75
2020/12/19 12:58:45;;;;;;;109.97;35.87;;;9.60;1.00;;;;;;5106547;28;20403;-75
2020/12/19 13:01:14;;;;;;;17.37;8.43;;;9.60;1.00;;;;;;5104987;28;20453;-74
2020/12/19 13:03:39;;;;;;;25.10;10.23;;;9.90;1.00;;;;;;5117287;27;20915;-74
2020/12/19 13:06:10;;;;;;;19.53;5.50;;;9.90;1.00;;;;;;5117131;28;20387;-75
2020/12/19 13:08:36;;;;;;;7.23;4.40;;;10.00;1.00;;;;;;5102079;28;20205;-76
2020/12/19 13:11:04;;;;;;;13.13;6.40;;;10.00;1.00;;;;;;5089303;28;20436;-77
2020/12/19 13:13:30;;;;;;;123.70;39.67;;;10.20;1.00;;;;;;5096592;28;20202;-75
2020/12/19 13:15:57;;;;;;;12.20;7.20;;;10.20;1.00;;;;;;5113560;28;20498;-74
2020/12/19 13:18:23;;;;;;;8.47;5.30;;;11.00;1.00;;;;;;5102993;28;20830;-75
2020/12/19 13:20:49;;;;;;;7.83;5.00;;;10.70;1.00;;;;;;5094173;28;20446;-73
2020/12/19 13:23:21;;;;;;;65.03;20.70;;;10.20;1.00;;;;;;5090342;28;20165;-73
2020/12/19 13:25:47;;;;;;;24.47;10.93;;;10.20;1.00;;;;;;5076707;28;20182;-77
2020/12/19 13:28:30;;;;;;;14.93;6.67;;;11.10;1.00;;;;;;5082963;28;20412;-76
2020/12/19 13:30:57;;;;;;;13.47;7.30;;;10.40;1.00;;;;;;5117022;28;20174;-76
2020/12/19 13:33:45;;;;;;;12.83;7.73;;;10.10;1.00;;;;;;5097407;28;20409;-77
2020/12/19 13:36:21;;;;;;;10.90;6.13;;;10.00;1.00;;;;;;5076633;28;20409;-77
2020/12/19 13:39:03;;;;;;;13.53;6.37;;;10.00;1.00;;;;;;5111193;28;20718;-78
2020/12/19 13:42:03;;;;;;;13.90;7.20;;;10.00;1.00;;;;;;5106829;28;20392;-77
2020/12/19 13:44:39;;;;;;;10.27;6.40;;;10.00;1.00;;;;;;5095378;28;20416;-77
2020/12/19 13:47:05;;;;;;;96.53;34.27;;;10.00;1.00;;;;;;5096199;28;20934;-77
2020/12/19 13:49:40;;;;;;;8.17;5.20;;;10.00;1.00;;;;;;5096136;28;20476;-76
2020/12/19 13:52:27;;;;;;;7.93;4.23;;;10.00;1.00;;;;;;5086177;28;20163;-77
2020/12/19 13:54:58;;;;;;;12.07;5.40;;;10.10;1.00;;;;;;5075948;28;20441;-74
2020/12/19 13:57:24;;;;;;;9.80;4.40;;;10.00;1.00;;;;;;5074770;28;20394;-73
2020/12/19 13:59:50;;;;;;;10.27;5.23;;;10.00;1.00;;;;;;5079661;28;20431;-73
2020/12/19 14:02:22;;;;;;;6.07;4.10;;;10.00;1.00;;;;;;5094990;28;20238;-73
2020/12/19 14:04:51;;;;;;;10.20;6.00;;;10.00;1.00;;;;;;5095639;28;20397;-73
2020/12/19 14:07:17;;;;;;;8.50;4.77;;;10.00;1.00;;;;;;5095519;28;20947;-73
2020/12/19 14:09:43;;;;;;;11.30;5.80;;;9.90;1.00;;;;;;5095510;28;20514;-73
2020/12/19 14:12:09;;;;;;;14.03;7.87;;;10.00;1.00;;;;;;5092317;28;20163;-72
2020/12/19 14:14:34;;;;;;;12.53;5.83;;;9.90;1.00;;;;;;5075212;28;20653;-74
2020/12/19 14:17:01;;;;;;;9.77;5.43;;;10.00;1.00;;;;;;5075309;28;20636;-72
2020/12/19 14:19:27;;;;;;;9.43;5.90;;;10.00;1.00;;;;;;5075221;28;20209;-73
2020/12/19 14:21:53;;;;;;;16.57;6.20;;;9.90;1.00;;;;;;5093602;28;20947;-72
2020/12/19 14:24:20;;;;;;;6.27;4.87;;;9.80;1.00;;;;;;5099429;28;20215;-74
2020/12/19 14:33:39;;;;;;;11.00;4.47;;;9.70;1.00;;;;;;5078282;28;20517;-77
2020/12/19 14:36:26;;;;;;;8.50;4.60;;;9.50;1.00;;;;;;5095111;28;20771;-77
2020/12/19 14:45:39;;;;;;;8.33;4.63;;;9.30;1.00;;;;;;5074627;28;20424;-77
2020/12/19 14:48:27;;;;;;;10.20;5.50;;;9.40;1.00;;;;;;5075166;28;20418;-76
2020/12/19 14:51:03;;;;;;;7.53;5.00;;;9.30;1.00;;;;;;5075021;28;20393;-76
2020/12/19 14:54:21;;;;;;;5.83;4.00;;;9.30;1.00;;;;;;5074498;28;20446;-77
2020/12/19 14:56:51;;;;;;;7.27;4.30;;;9.20;1.00;;;;;;5075050;28;20421;-75
2020/12/19 14:59:17;;;;;;;7.47;4.97;;;9.20;1.00;;;;;;5074460;28;20861;-75
2020/12/19 15:01:43;;;;;;;7.80;4.80;;;9.20;1.00;;;;;;5074327;28;20466;-75
2020/12/19 15:04:09;;;;;;;8.90;4.40;;;9.10;1.00;;;;;;5074334;28;20614;-76
2020/12/19 15:06:51;;;;;;;21.97;9.10;;;9.00;1.00;;;;;;5076314;28;20198;-75
2020/12/19 15:09:17;;;;;;;9.47;5.00;;;9.00;1.00;;;;;;5080419;28;20475;-75
2020/12/19 15:15:45;;;;;;;11.13;6.20;;;8.90;1.00;;;;;;5074072;28;20218;-77
2020/12/19 15:18:40;;;;;;;9.73;5.50;;;8.90;1.00;;;;;;5073430;28;20425;-77
2020/12/19 15:21:06;;;;;;;10.80;5.83;;;8.80;1.00;;;;;;5074076;28;20401;-77
2020/12/19 15:24:09;;;;;;;7.13;4.80;;;8.70;1.00;;;;;;5095384;28;20435;-77
2020/12/19 15:26:35;;;;;;;6.33;4.50;;;8.50;1.00;;;;;;5115228;28;20384;-75